METAR Data
IDs: Format: Raw Decoded Include TAF

Data at: 0117 UTC 16 Jan 2019

PGUM 160054Z 04017G24KT 10SM BKN025 30/24 A2988 RMK AO2 PK WND 06028/0026 SLP111 T03000244 $
PGUM 152354Z 05014KT 10SM SCT050 27/24 A2989 RMK AO2 SLP113 6//// T02720244 10278 20261 50008 PNO $
PGUM 152254Z COR 05016G22KT 10SM SCT050 27/24 A2989 RMK AO2 SLPNO PNO $
PGUM 152154Z 05013KT 10SM SCT050 27/24 A2988 RMK AO2 SLP109 T02720244
PGUM 152054Z 05013KT 10SM SCT055 27/24 A2986 RMK AO2 SLP104 60000 T02670239 53012
PGUM 151954Z 04012KT 10SM SCT031 27/24 A2985 RMK AO2 SLP099 T02670239

PGUM 152327Z 1600/1706 05015G25KT P6SM VCSH SCT024 SCT050
  FM160800 06011KT P6SM VCSH SCT022
  FM170100 07015G25KT P6SM VCSH SCT024